Terminal Aerodrome Forecast
Issued by NWS Quad Cities IA IL

Home | Current Version | Previous Version | Text Only | Print | Product List | Glossary On
Versions: 1 2 3 4 5 6 7 8 9 10 11 12 13 14 15 16 17 18 19 20 21 22
000
FTUS43 KDVN 181412 AAA
TAFDBQ
TAF AMD
KDBQ 181412Z 1814/1912 18010KT 1/4SM FZFG VV002
     FM181600 16014KT 6SM BR FEW001 BKN250
     FM181800 17022G28KT P6SM BKN250
     FM182300 17015KT P6SM BKN250
     FM191100 17009KT 6SM -RA BR OVC035=

USA.gov is the U.S. government's official web portal to all federal, state and local government web resources and services.